Terminal Aerodrome Forecast
Issued by NWS Springfield, MO

Home | Current Version | Previous Version | Text Only | Print | Product List | Glossary On
Versions: 1 2 3 4 5 6 7 8 9 10 11 12 13 14
315
FTUS43 KSGF 031120
TAFSGF
TAF
KSGF 031120Z 0312/0412 30014G24KT P6SM OVC020
     FM032000 31012G20KT P6SM BKN025
     FM032300 31007KT P6SM SKC
     FM040600 VRB03KT P6SM SKC=

USA.gov is the U.S. government's official web portal to all federal, state and local government web resources and services.